»·PEaware :: N7GL KSNA-KPSP

N7GL :: KSNA-KPSP

FLIGHT INFORMATION

Flight Status: Arrived
Operator: Privately registered:
United States
More flights under this callsign
Pilot: Georg L. (13308)
Aircraft: BEECH AIRCRAFT SUPER KING AIR 350
(B350)
More flights by this aircraft type
Origin: KSNA John Wayne-Orange Co
United States
Destination: KPSP Palm Springs Intl
United States
More flights between these airports :: More routes between these airports
Route: +MUSEL8 SLI NIKKL V64 TRM
File this flight plan on PilotEdge
Remarks:
Altitude:
(Current/Filed)
13,000ft
Speed:
(Current/Filed)
289kts
Departed: 30-Aug-20 11:53 AM
Arrived: 30-Aug-20 12:30 PM
Distance/Time
Traveled:
68nm/0:37
Distance/Time
To Go:
Arrived

Flight Plot

Page will automatically refresh every two minutes.


Map Options




Map Legend


Flown Route
Filed Route
Departure Airport
Arrival Airport
Navaid (VOR, NDB)
Fix

Horizontal Profiles

Position Reports

Time Latitude Longitude Heading Altitude Ground
Speed
30-Aug-20 11:28 33.666041 -117.872984 28 61ft 0kts
30-Aug-20 11:29 33.666041 -117.872984 28 61ft 0kts
30-Aug-20 11:30 33.666041 -117.872984 28 61ft 0kts
30-Aug-20 11:31 33.666041 -117.872984 28 61ft 0kts
30-Aug-20 11:32 33.666041 -117.872984 28 61ft 0kts
30-Aug-20 11:33 33.666041 -117.872984 28 61ft 0kts
30-Aug-20 11:34 33.666041 -117.872984 28 61ft 0kts
30-Aug-20 11:35 33.666041 -117.872984 28 61ft 0kts
30-Aug-20 11:36 33.666041 -117.872984 28 61ft 0kts
30-Aug-20 11:37 33.666041 -117.872984 28 61ft 0kts
30-Aug-20 11:38 33.666041 -117.872983 28 61ft 0kts
30-Aug-20 11:39 33.666041 -117.872983 28 61ft 0kts
30-Aug-20 11:40 33.666041 -117.872983 28 61ft 0kts
30-Aug-20 11:41 33.666838 -117.873148 32 61ft 7kts
30-Aug-20 11:42 33.667029 -117.872997 33 61ft 0kts
30-Aug-20 11:43 33.668467 -117.871632 38 61ft 16kts
30-Aug-20 11:44 33.671600 -117.868472 31 61ft 15kts
30-Aug-20 11:45 33.675802 -117.865398 27 61ft 20kts
30-Aug-20 11:46 33.678633 -117.863604 27 61ft 0kts
30-Aug-20 11:47 33.679270 -117.863196 29 61ft 11kts
30-Aug-20 11:48 33.681053 -117.863980 298 61ft 8kts
30-Aug-20 11:49 33.681191 -117.864289 295 61ft 0kts
30-Aug-20 11:50 33.681191 -117.864289 295 61ft 0kts
30-Aug-20 11:51 33.681191 -117.864289 295 61ft 0kts
30-Aug-20 11:52 33.674675 -117.869398 207 98ft 125kts
30-Aug-20 11:53 33.635198 -117.887016 189 2084ft 175kts
30-Aug-20 11:54 33.583046 -117.896577 188 3931ft 198kts
30-Aug-20 11:55 33.531101 -117.906104 187 6172ft 185kts
30-Aug-20 11:56 33.479336 -117.923911 235 7670ft 206kts
30-Aug-20 11:57 33.468091 -117.999422 261 8014ft 259kts
30-Aug-20 11:58 33.499961 -118.059932 354 9895ft 213kts
30-Aug-20 11:59 33.555598 -118.059688 1 11843ft 203kts
30-Aug-20 12:00 33.612452 -118.058364 0 13440ft 206kts
30-Aug-20 12:01 33.669751 -118.057166 359 14941ft 207kts
30-Aug-20 12:02 33.735516 -118.055341 6 15010ft 261kts
30-Aug-20 12:03 33.778324 -117.988391 95 15010ft 288kts
30-Aug-20 12:04 33.770942 -117.892889 97 15001ft 301kts
30-Aug-20 12:05 33.763190 -117.792147 97 15000ft 304kts
30-Aug-20 12:06 33.755357 -117.690291 97 15000ft 305kts
30-Aug-20 12:07 33.747473 -117.588491 97 15000ft 305kts
30-Aug-20 12:08 33.739488 -117.486640 97 14999ft 306kts
30-Aug-20 12:09 33.731470 -117.385394 97 15000ft 304kts
30-Aug-20 12:10 33.723417 -117.284361 97 14999ft 303kts
30-Aug-20 12:11 33.715050 -117.183091 97 14990ft 303kts
30-Aug-20 12:12 33.706748 -117.081899 97 14983ft 304kts
30-Aug-20 12:13 33.698589 -116.980531 97 14952ft 305kts
30-Aug-20 12:14 33.690150 -116.879113 97 14921ft 305kts
30-Aug-20 12:15 33.681638 -116.777886 98 14916ft 305kts
30-Aug-20 12:17 33.672900 -116.675833 98 14398ft 311kts
30-Aug-20 12:18 33.664144 -116.573729 98 12890ft 302kts
30-Aug-20 12:19 33.655489 -116.474170 98 11320ft 297kts
30-Aug-20 12:20 33.678635 -116.385918 51 9170ft 286kts
30-Aug-20 12:21 33.724523 -116.318585 52 7919ft 250kts
30-Aug-20 12:22 33.782066 -116.293818 324 5991ft 248kts
30-Aug-20 12:23 33.818126 -116.362418 299 4126ft 243kts
30-Aug-20 12:24 33.827718 -116.435585 226 2195ft 237kts
30-Aug-20 12:25 33.807008 -116.491355 326 1285ft 153kts
30-Aug-20 12:26 33.838277 -116.516750 313 1119ft 131kts
30-Aug-20 12:27 33.816719 -116.533109 144 2028ft 158kts
30-Aug-20 12:28 33.790607 -116.493078 77 1576ft 148kts
30-Aug-20 12:29 33.817371 -116.496788 324 526ft 114kts
30-Aug-20 12:30 33.828712 -116.508076 269 431ft 11kts
30-Aug-20 12:31 33.828714 -116.508573 269 431ft 0kts
30-Aug-20 12:32 33.826252 -116.506804 188 431ft 10kts
30-Aug-20 12:33 33.825988 -116.508614 91 431ft 0kts
30-Aug-20 12:34 33.825988 -116.508614 91 431ft 0kts
30-Aug-20 12:34 33.825988 -116.508614 91 431ft 0kts
30-Aug-20 12:35 33.825988 -116.508614 91 431ft 0kts
30-Aug-20 12:37 33.825988 -116.508614 91 431ft 0kts

Navigation Log

Ident Type
Flight plan parsing failed, navigation log unavailable